sensor_id;sensor_type;location;lat;lon;timestamp;temperature;humidity
16408;DHT22;8313;49.894;8.084;2022-08-19T00:01:19;23.20;85.80
16408;DHT22;8313;49.894;8.084;2022-08-19T00:03:45;23.20;85.40
16408;DHT22;8313;49.894;8.084;2022-08-19T00:06:11;23.20;86.00
16408;DHT22;8313;49.894;8.084;2022-08-19T00:08:37;23.20;85.70
16408;DHT22;8313;49.894;8.084;2022-08-19T00:11:03;23.30;85.80
16408;DHT22;8313;49.894;8.084;2022-08-19T00:13:28;23.20;86.00
16408;DHT22;8313;49.894;8.084;2022-08-19T00:15:55;23.20;85.80
16408;DHT22;8313;49.894;8.084;2022-08-19T00:18:21;23.20;86.10
16408;DHT22;8313;49.894;8.084;2022-08-19T00:20:47;23.20;87.00
16408;DHT22;8313;49.894;8.084;2022-08-19T00:23:12;23.20;85.80
16408;DHT22;8313;49.894;8.084;2022-08-19T00:25:38;23.20;86.30
16408;DHT22;8313;49.894;8.084;2022-08-19T00:28:04;23.10;86.30
16408;DHT22;8313;49.894;8.084;2022-08-19T00:30:30;23.10;86.70
16408;DHT22;8313;49.894;8.084;2022-08-19T00:32:56;23.10;86.90
16408;DHT22;8313;49.894;8.084;2022-08-19T00:35:23;23.10;87.40
16408;DHT22;8313;49.894;8.084;2022-08-19T00:37:49;23.10;88.10
16408;DHT22;8313;49.894;8.084;2022-08-19T00:40:16;23.10;86.80
16408;DHT22;8313;49.894;8.084;2022-08-19T00:42:44;23.10;86.50
16408;DHT22;8313;49.894;8.084;2022-08-19T00:45:21;23.10;86.90
16408;DHT22;8313;49.894;8.084;2022-08-19T00:47:48;23.10;87.00
16408;DHT22;8313;49.894;8.084;2022-08-19T00:50:16;23.00;87.10
16408;DHT22;8313;49.894;8.084;2022-08-19T00:52:46;23.10;86.60
16408;DHT22;8313;49.894;8.084;2022-08-19T00:55:18;23.10;86.50
16408;DHT22;8313;49.894;8.084;2022-08-19T00:57:58;23.10;86.70
16408;DHT22;8313;49.894;8.084;2022-08-19T01:00:26;23.10;86.20
16408;DHT22;8313;49.894;8.084;2022-08-19T01:02:53;23.10;86.30
16408;DHT22;8313;49.894;8.084;2022-08-19T01:05:24;23.10;85.90
16408;DHT22;8313;49.894;8.084;2022-08-19T01:07:53;23.10;86.30
16408;DHT22;8313;49.894;8.084;2022-08-19T01:10:24;23.10;86.60
16408;DHT22;8313;49.894;8.084;2022-08-19T01:12:51;23.10;86.20
16408;DHT22;8313;49.894;8.084;2022-08-19T01:15:23;23.00;87.00
16408;DHT22;8313;49.894;8.084;2022-08-19T01:17:50;23.00;87.00
16408;DHT22;8313;49.894;8.084;2022-08-19T01:20:20;23.00;87.80
16408;DHT22;8313;49.894;8.084;2022-08-19T01:22:49;23.00;87.20
16408;DHT22;8313;49.894;8.084;2022-08-19T01:25:17;22.90;87.90
16408;DHT22;8313;49.894;8.084;2022-08-19T01:27:47;22.90;88.20
16408;DHT22;8313;49.894;8.084;2022-08-19T01:30:26;22.90;87.80
16408;DHT22;8313;49.894;8.084;2022-08-19T01:32:53;22.80;88.50
16408;DHT22;8313;49.894;8.084;2022-08-19T01:35:19;22.80;88.90
16408;DHT22;8313;49.894;8.084;2022-08-19T01:37:50;22.80;88.80
16408;DHT22;8313;49.894;8.084;2022-08-19T01:40:19;22.80;88.90
16408;DHT22;8313;49.894;8.084;2022-08-19T01:42:49;22.80;88.70
16408;DHT22;8313;49.894;8.084;2022-08-19T01:45:17;22.80;88.90
16408;DHT22;8313;49.894;8.084;2022-08-19T01:47:43;22.70;89.30
16408;DHT22;8313;49.894;8.084;2022-08-19T01:50:11;22.70;89.50
16408;DHT22;8313;49.894;8.084;2022-08-19T01:52:38;22.70;89.30
16408;DHT22;8313;49.894;8.084;2022-08-19T01:55:06;22.70;89.50
16408;DHT22;8313;49.894;8.084;2022-08-19T01:57:33;22.70;89.50
16408;DHT22;8313;49.894;8.084;2022-08-19T01:59:59;22.70;89.70
16408;DHT22;8313;49.894;8.084;2022-08-19T02:02:25;22.70;89.40
16408;DHT22;8313;49.894;8.084;2022-08-19T02:04:51;22.70;89.70
16408;DHT22;8313;49.894;8.084;2022-08-19T02:07:19;22.70;89.70
16408;DHT22;8313;49.894;8.084;2022-08-19T02:09:47;22.70;90.00
16408;DHT22;8313;49.894;8.084;2022-08-19T02:12:14;22.60;90.00
16408;DHT22;8313;49.894;8.084;2022-08-19T02:14:40;22.60;90.10
16408;DHT22;8313;49.894;8.084;2022-08-19T02:17:06;22.60;90.10
16408;DHT22;8313;49.894;8.084;2022-08-19T02:19:32;22.60;90.00
16408;DHT22;8313;49.894;8.084;2022-08-19T02:21:58;22.60;90.10
16408;DHT22;8313;49.894;8.084;2022-08-19T02:24:25;22.60;90.10
16408;DHT22;8313;49.894;8.084;2022-08-19T02:26:51;22.50;90.40
16408;DHT22;8313;49.894;8.084;2022-08-19T02:29:17;22.50;90.40
16408;DHT22;8313;49.894;8.084;2022-08-19T02:31:43;22.50;90.50
16408;DHT22;8313;49.894;8.084;2022-08-19T02:34:08;22.50;90.60
16408;DHT22;8313;49.894;8.084;2022-08-19T02:36:34;22.50;90.60
16408;DHT22;8313;49.894;8.084;2022-08-19T02:39:00;22.50;90.50
16408;DHT22;8313;49.894;8.084;2022-08-19T02:41:30;22.50;90.50
16408;DHT22;8313;49.894;8.084;2022-08-19T02:43:58;22.50;90.40
16408;DHT22;8313;49.894;8.084;2022-08-19T02:46:30;22.50;90.30
16408;DHT22;8313;49.894;8.084;2022-08-19T02:48:59;22.50;90.40
16408;DHT22;8313;49.894;8.084;2022-08-19T02:51:30;22.50;90.50
16408;DHT22;8313;49.894;8.084;2022-08-19T02:53:56;22.40;90.30
16408;DHT22;8313;49.894;8.084;2022-08-19T02:56:23;22.50;90.30
16408;DHT22;8313;49.894;8.084;2022-08-19T02:58:50;22.50;90.30
16408;DHT22;8313;49.894;8.084;2022-08-19T03:01:24;22.50;90.30
16408;DHT22;8313;49.894;8.084;2022-08-19T03:03:52;22.50;90.30
16408;DHT22;8313;49.894;8.084;2022-08-19T03:06:18;22.40;90.20
16408;DHT22;8313;49.894;8.084;2022-08-19T03:08:46;22.40;90.30
16408;DHT22;8313;49.894;8.084;2022-08-19T03:13:48;22.40;90.30
16408;DHT22;8313;49.894;8.084;2022-08-19T03:16:17;22.40;90.30
16408;DHT22;8313;49.894;8.084;2022-08-19T03:18:43;22.40;90.30
16408;DHT22;8313;49.894;8.084;2022-08-19T03:21:09;22.40;90.50
16408;DHT22;8313;49.894;8.084;2022-08-19T03:23:35;22.40;90.30
16408;DHT22;8313;49.894;8.084;2022-08-19T03:26:05;22.30;90.40
16408;DHT22;8313;49.894;8.084;2022-08-19T03:28:32;22.30;90.40
16408;DHT22;8313;49.894;8.084;2022-08-19T03:31:04;22.30;90.50
16408;DHT22;8313;49.894;8.084;2022-08-19T03:33:31;22.30;90.50
16408;DHT22;8313;49.894;8.084;2022-08-19T03:36:09;22.30;90.40
16408;DHT22;8313;49.894;8.084;2022-08-19T03:38:42;22.30;90.50
16408;DHT22;8313;49.894;8.084;2022-08-19T03:41:12;22.30;90.50
16408;DHT22;8313;49.894;8.084;2022-08-19T03:43:39;22.30;90.50
16408;DHT22;8313;49.894;8.084;2022-08-19T03:46:11;22.30;90.50
16408;DHT22;8313;49.894;8.084;2022-08-19T03:48:39;22.20;90.50
16408;DHT22;8313;49.894;8.084;2022-08-19T03:51:07;22.20;90.60
16408;DHT22;8313;49.894;8.084;2022-08-19T03:53:34;22.20;90.60
16408;DHT22;8313;49.894;8.084;2022-08-19T03:56:01;22.20;90.50
16408;DHT22;8313;49.894;8.084;2022-08-19T03:58:29;22.20;90.60
16408;DHT22;8313;49.894;8.084;2022-08-19T04:00:55;22.20;90.50
16408;DHT22;8313;49.894;8.084;2022-08-19T04:03:23;22.20;90.70
16408;DHT22;8313;49.894;8.084;2022-08-19T04:05:49;22.10;90.80
16408;DHT22;8313;49.894;8.084;2022-08-19T04:08:15;22.10;90.70
16408;DHT22;8313;49.894;8.084;2022-08-19T04:10:44;22.10;90.80
16408;DHT22;8313;49.894;8.084;2022-08-19T04:13:09;22.10;90.80
16408;DHT22;8313;49.894;8.084;2022-08-19T04:15:43;22.00;91.00
16408;DHT22;8313;49.894;8.084;2022-08-19T04:18:10;22.00;91.00
16408;DHT22;8313;49.894;8.084;2022-08-19T04:20:44;22.00;90.80
16408;DHT22;8313;49.894;8.084;2022-08-19T04:23:12;21.90;90.90
16408;DHT22;8313;49.894;8.084;2022-08-19T04:25:40;22.00;90.90
16408;DHT22;8313;49.894;8.084;2022-08-19T04:28:07;21.90;90.90
16408;DHT22;8313;49.894;8.084;2022-08-19T04:30:43;22.00;90.80
16408;DHT22;8313;49.894;8.084;2022-08-19T04:33:10;21.90;90.80
16408;DHT22;8313;49.894;8.084;2022-08-19T04:35:38;21.90;90.80
16408;DHT22;8313;49.894;8.084;2022-08-19T04:38:05;22.00;91.00
16408;DHT22;8313;49.894;8.084;2022-08-19T04:40:31;22.00;91.00
16408;DHT22;8313;49.894;8.084;2022-08-19T04:43:15;21.90;90.90
16408;DHT22;8313;49.894;8.084;2022-08-19T04:45:45;21.80;91.00
16408;DHT22;8313;49.894;8.084;2022-08-19T04:48:12;21.80;91.10
16408;DHT22;8313;49.894;8.084;2022-08-19T04:50:43;21.80;91.00
16408;DHT22;8313;49.894;8.084;2022-08-19T04:53:09;21.80;91.20
16408;DHT22;8313;49.894;8.084;2022-08-19T04:55:39;21.80;91.20
16408;DHT22;8313;49.894;8.084;2022-08-19T04:58:05;21.80;91.20
16408;DHT22;8313;49.894;8.084;2022-08-19T05:00:30;21.80;91.10
16408;DHT22;8313;49.894;8.084;2022-08-19T05:02:56;21.80;91.00
16408;DHT22;8313;49.894;8.084;2022-08-19T05:05:22;21.80;91.10
16408;DHT22;8313;49.894;8.084;2022-08-19T05:07:47;21.80;91.10
16408;DHT22;8313;49.894;8.084;2022-08-19T05:10:13;21.70;91.20
16408;DHT22;8313;49.894;8.084;2022-08-19T05:12:39;21.70;91.40
16408;DHT22;8313;49.894;8.084;2022-08-19T05:15:06;21.60;91.70
16408;DHT22;8313;49.894;8.084;2022-08-19T05:17:34;21.60;91.70
16408;DHT22;8313;49.894;8.084;2022-08-19T05:20:00;21.70;91.70
16408;DHT22;8313;49.894;8.084;2022-08-19T05:22:46;21.60;91.80
16408;DHT22;8313;49.894;8.084;2022-08-19T05:25:15;21.60;92.00
16408;DHT22;8313;49.894;8.084;2022-08-19T05:27:44;21.60;91.90
16408;DHT22;8313;49.894;8.084;2022-08-19T05:30:11;21.60;92.00
16408;DHT22;8313;49.894;8.084;2022-08-19T05:32:37;21.60;91.90
16408;DHT22;8313;49.894;8.084;2022-08-19T05:35:04;21.60;92.10
16408;DHT22;8313;49.894;8.084;2022-08-19T05:37:30;21.60;92.00
16408;DHT22;8313;49.894;8.084;2022-08-19T05:39:56;21.70;92.10
16408;DHT22;8313;49.894;8.084;2022-08-19T05:42:22;21.60;92.10
16408;DHT22;8313;49.894;8.084;2022-08-19T05:44:49;21.70;92.10
16408;DHT22;8313;49.894;8.084;2022-08-19T05:47:16;21.60;92.50
16408;DHT22;8313;49.894;8.084;2022-08-19T05:49:43;21.60;92.50
16408;DHT22;8313;49.894;8.084;2022-08-19T05:52:14;21.60;92.60
16408;DHT22;8313;49.894;8.084;2022-08-19T05:54:41;21.60;92.70
16408;DHT22;8313;49.894;8.084;2022-08-19T05:57:08;21.60;93.00
16408;DHT22;8313;49.894;8.084;2022-08-19T05:59:34;21.60;93.00
16408;DHT22;8313;49.894;8.084;2022-08-19T06:02:05;21.60;92.90
16408;DHT22;8313;49.894;8.084;2022-08-19T06:04:32;21.60;92.90
16408;DHT22;8313;49.894;8.084;2022-08-19T06:06:58;21.60;93.00
16408;DHT22;8313;49.894;8.084;2022-08-19T06:09:24;21.60;93.30
16408;DHT22;8313;49.894;8.084;2022-08-19T06:11:56;21.60;93.30
16408;DHT22;8313;49.894;8.084;2022-08-19T06:14:29;21.60;93.10
16408;DHT22;8313;49.894;8.084;2022-08-19T06:16:55;21.70;93.10
16408;DHT22;8313;49.894;8.084;2022-08-19T06:19:22;21.70;93.40
16408;DHT22;8313;49.894;8.084;2022-08-19T06:21:51;21.80;93.50
16408;DHT22;8313;49.894;8.084;2022-08-19T06:24:20;21.80;93.30
16408;DHT22;8313;49.894;8.084;2022-08-19T06:26:47;21.80;93.50
16408;DHT22;8313;49.894;8.084;2022-08-19T06:29:15;21.80;93.70
16408;DHT22;8313;49.894;8.084;2022-08-19T06:31:47;21.80;93.50
16408;DHT22;8313;49.894;8.084;2022-08-19T06:34:15;21.90;93.70
16408;DHT22;8313;49.894;8.084;2022-08-19T06:36:45;21.90;93.90
16408;DHT22;8313;49.894;8.084;2022-08-19T06:39:14;21.90;94.10
16408;DHT22;8313;49.894;8.084;2022-08-19T06:41:44;22.00;94.10
16408;DHT22;8313;49.894;8.084;2022-08-19T06:44:17;22.00;94.00
16408;DHT22;8313;49.894;8.084;2022-08-19T06:46:46;22.00;93.90
16408;DHT22;8313;49.894;8.084;2022-08-19T06:49:13;22.00;94.10
16408;DHT22;8313;49.894;8.084;2022-08-19T06:51:44;22.00;94.10
16408;DHT22;8313;49.894;8.084;2022-08-19T06:54:11;22.10;94.30
16408;DHT22;8313;49.894;8.084;2022-08-19T06:56:37;22.10;94.30
16408;DHT22;8313;49.894;8.084;2022-08-19T06:59:12;22.20;94.20
16408;DHT22;8313;49.894;8.084;2022-08-19T07:01:43;22.20;94.40
16408;DHT22;8313;49.894;8.084;2022-08-19T07:04:11;22.20;94.10
16408;DHT22;8313;49.894;8.084;2022-08-19T07:06:37;22.20;94.20
16408;DHT22;8313;49.894;8.084;2022-08-19T07:09:05;22.30;94.30
16408;DHT22;8313;49.894;8.084;2022-08-19T07:11:31;22.30;94.30
16408;DHT22;8313;49.894;8.084;2022-08-19T07:13:58;22.30;94.20
16408;DHT22;8313;49.894;8.084;2022-08-19T07:16:24;22.40;94.30
16408;DHT22;8313;49.894;8.084;2022-08-19T07:18:51;22.40;94.30
16408;DHT22;8313;49.894;8.084;2022-08-19T07:21:22;22.40;94.40
16408;DHT22;8313;49.894;8.084;2022-08-19T07:23:50;22.50;94.30
16408;DHT22;8313;49.894;8.084;2022-08-19T07:26:17;22.50;94.30
16408;DHT22;8313;49.894;8.084;2022-08-19T07:28:45;22.50;94.40
16408;DHT22;8313;49.894;8.084;2022-08-19T07:31:12;22.50;94.50
16408;DHT22;8313;49.894;8.084;2022-08-19T07:33:39;22.60;94.30
16408;DHT22;8313;49.894;8.084;2022-08-19T07:36:07;22.70;94.40
16408;DHT22;8313;49.894;8.084;2022-08-19T07:38:35;22.70;94.30
16408;DHT22;8313;49.894;8.084;2022-08-19T07:41:01;22.80;94.40
16408;DHT22;8313;49.894;8.084;2022-08-19T07:43:27;22.90;94.50
16408;DHT22;8313;49.894;8.084;2022-08-19T07:45:54;22.90;94.70
16408;DHT22;8313;49.894;8.084;2022-08-19T07:48:24;23.00;94.40
16408;DHT22;8313;49.894;8.084;2022-08-19T07:50:56;23.00;94.40
16408;DHT22;8313;49.894;8.084;2022-08-19T07:53:23;23.00;94.30
16408;DHT22;8313;49.894;8.084;2022-08-19T07:55:50;23.10;94.40
16408;DHT22;8313;49.894;8.084;2022-08-19T07:58:19;23.20;94.50
16408;DHT22;8313;49.894;8.084;2022-08-19T08:00:46;23.10;94.00
16408;DHT22;8313;49.894;8.084;2022-08-19T08:03:14;23.20;94.20
16408;DHT22;8313;49.894;8.084;2022-08-19T08:05:41;23.20;94.00
16408;DHT22;8313;49.894;8.084;2022-08-19T08:08:26;23.30;94.30
16408;DHT22;8313;49.894;8.084;2022-08-19T08:11:01;23.40;94.30
16408;DHT22;8313;49.894;8.084;2022-08-19T08:13:27;23.40;93.90
16408;DHT22;8313;49.894;8.084;2022-08-19T08:15:53;23.50;94.20
16408;DHT22;8313;49.894;8.084;2022-08-19T08:18:18;23.50;93.90
16408;DHT22;8313;49.894;8.084;2022-08-19T08:20:46;23.50;93.70
16408;DHT22;8313;49.894;8.084;2022-08-19T08:23:11;23.60;93.90
16408;DHT22;8313;49.894;8.084;2022-08-19T08:25:57;23.70;93.80
16408;DHT22;8313;49.894;8.084;2022-08-19T08:28:25;23.70;93.50
16408;DHT22;8313;49.894;8.084;2022-08-19T08:30:51;23.80;94.20
16408;DHT22;8313;49.894;8.084;2022-08-19T08:33:22;23.80;93.50
16408;DHT22;8313;49.894;8.084;2022-08-19T08:35:48;23.80;93.90
16408;DHT22;8313;49.894;8.084;2022-08-19T08:38:14;23.80;93.50
16408;DHT22;8313;49.894;8.084;2022-08-19T08:41:03;23.90;93.50
16408;DHT22;8313;49.894;8.084;2022-08-19T08:43:39;23.90;93.50
16408;DHT22;8313;49.894;8.084;2022-08-19T08:49:05;24.00;93.20
16408;DHT22;8313;49.894;8.084;2022-08-19T08:51:37;24.00;92.70
16408;DHT22;8313;49.894;8.084;2022-08-19T08:54:10;24.10;93.00
16408;DHT22;8313;49.894;8.084;2022-08-19T08:56:39;24.10;92.90
16408;DHT22;8313;49.894;8.084;2022-08-19T08:59:28;24.20;92.40
16408;DHT22;8313;49.894;8.084;2022-08-19T09:01:52;24.10;92.00
16408;DHT22;8313;49.894;8.084;2022-08-19T09:04:18;24.10;92.20
16408;DHT22;8313;49.894;8.084;2022-08-19T09:10:08;24.20;92.00
16408;DHT22;8313;49.894;8.084;2022-08-19T09:12:47;24.30;91.90
16408;DHT22;8313;49.894;8.084;2022-08-19T09:15:29;24.40;92.10
16408;DHT22;8313;49.894;8.084;2022-08-19T09:18:00;24.60;92.20
16408;DHT22;8313;49.894;8.084;2022-08-19T09:20:27;24.80;92.30
16408;DHT22;8313;49.894;8.084;2022-08-19T09:22:53;24.70;91.60
16408;DHT22;8313;49.894;8.084;2022-08-19T09:25:21;24.70;91.60
16408;DHT22;8313;49.894;8.084;2022-08-19T09:27:48;24.80;91.80
16408;DHT22;8313;49.894;8.084;2022-08-19T09:30:18;25.00;91.60
16408;DHT22;8313;49.894;8.084;2022-08-19T09:32:44;24.90;91.00
16408;DHT22;8313;49.894;8.084;2022-08-19T09:35:11;24.90;91.10
16408;DHT22;8313;49.894;8.084;2022-08-19T09:37:38;25.00;91.10
16408;DHT22;8313;49.894;8.084;2022-08-19T09:40:04;25.00;90.60
16408;DHT22;8313;49.894;8.084;2022-08-19T09:42:30;25.00;90.50
16408;DHT22;8313;49.894;8.084;2022-08-19T09:44:56;24.90;90.10
16408;DHT22;8313;49.894;8.084;2022-08-19T09:47:21;24.90;90.00
16408;DHT22;8313;49.894;8.084;2022-08-19T09:49:47;24.90;90.00
16408;DHT22;8313;49.894;8.084;2022-08-19T09:52:14;25.10;90.10
16408;DHT22;8313;49.894;8.084;2022-08-19T09:54:41;25.20;88.20
16408;DHT22;8313;49.894;8.084;2022-08-19T09:57:07;25.30;88.70
16408;DHT22;8313;49.894;8.084;2022-08-19T09:59:33;25.40;87.80
16408;DHT22;8313;49.894;8.084;2022-08-19T10:01:59;25.50;87.00
16408;DHT22;8313;49.894;8.084;2022-08-19T10:04:24;25.50;85.80
16408;DHT22;8313;49.894;8.084;2022-08-19T10:07:10;25.60;85.90
16408;DHT22;8313;49.894;8.084;2022-08-19T10:09:36;25.60;85.80
16408;DHT22;8313;49.894;8.084;2022-08-19T10:12:04;25.80;85.70
16408;DHT22;8313;49.894;8.084;2022-08-19T10:14:30;25.90;84.40
16408;DHT22;8313;49.894;8.084;2022-08-19T10:16:57;26.00;85.10
16408;DHT22;8313;49.894;8.084;2022-08-19T10:19:22;26.20;84.00
16408;DHT22;8313;49.894;8.084;2022-08-19T10:21:48;26.10;81.20
16408;DHT22;8313;49.894;8.084;2022-08-19T10:24:14;26.10;82.40
16408;DHT22;8313;49.894;8.084;2022-08-19T10:26:40;26.10;80.90
16408;DHT22;8313;49.894;8.084;2022-08-19T10:29:11;26.00;79.40
16408;DHT22;8313;49.894;8.084;2022-08-19T10:31:37;26.00;78.90
16408;DHT22;8313;49.894;8.084;2022-08-19T10:34:03;26.00;78.90
16408;DHT22;8313;49.894;8.084;2022-08-19T10:36:35;26.00;79.30
16408;DHT22;8313;49.894;8.084;2022-08-19T10:39:04;26.10;79.40
16408;DHT22;8313;49.894;8.084;2022-08-19T10:41:33;26.10;79.80
16408;DHT22;8313;49.894;8.084;2022-08-19T10:44:07;26.10;78.40
16408;DHT22;8313;49.894;8.084;2022-08-19T10:46:36;26.10;77.00
16408;DHT22;8313;49.894;8.084;2022-08-19T10:49:03;26.20;76.60
16408;DHT22;8313;49.894;8.084;2022-08-19T10:51:30;26.20;77.00
16408;DHT22;8313;49.894;8.084;2022-08-19T10:54:14;26.40;76.70
16408;DHT22;8313;49.894;8.084;2022-08-19T10:56:40;26.70;77.40
16408;DHT22;8313;49.894;8.084;2022-08-19T10:59:36;26.80;76.60
16408;DHT22;8313;49.894;8.084;2022-08-19T11:02:05;26.80;75.50
16408;DHT22;8313;49.894;8.084;2022-08-19T11:04:31;27.00;76.40
16408;DHT22;8313;49.894;8.084;2022-08-19T11:06:57;27.00;74.80
16408;DHT22;8313;49.894;8.084;2022-08-19T11:09:25;26.70;73.60
16408;DHT22;8313;49.894;8.084;2022-08-19T11:11:51;26.70;73.90
16408;DHT22;8313;49.894;8.084;2022-08-19T11:14:19;26.70;74.10
16408;DHT22;8313;49.894;8.084;2022-08-19T11:16:46;26.80;74.80
16408;DHT22;8313;49.894;8.084;2022-08-19T11:19:13;27.00;75.00
16408;DHT22;8313;49.894;8.084;2022-08-19T11:21:43;27.20;74.70
16408;DHT22;8313;49.894;8.084;2022-08-19T11:24:15;27.20;74.50
16408;DHT22;8313;49.894;8.084;2022-08-19T11:26:43;27.50;74.30
16408;DHT22;8313;49.894;8.084;2022-08-19T11:29:11;27.60;73.60
16408;DHT22;8313;49.894;8.084;2022-08-19T11:31:40;27.50;72.80
16408;DHT22;8313;49.894;8.084;2022-08-19T11:34:09;27.50;72.80
16408;DHT22;8313;49.894;8.084;2022-08-19T11:36:38;27.60;73.00
16408;DHT22;8313;49.894;8.084;2022-08-19T11:39:08;27.60;72.60
16408;DHT22;8313;49.894;8.084;2022-08-19T11:41:33;27.50;72.10
16408;DHT22;8313;49.894;8.084;2022-08-19T11:43:59;27.60;72.80
16408;DHT22;8313;49.894;8.084;2022-08-19T11:46:26;27.80;71.90
16408;DHT22;8313;49.894;8.084;2022-08-19T11:48:55;27.80;71.80
16408;DHT22;8313;49.894;8.084;2022-08-19T11:51:22;27.90;71.40
16408;DHT22;8313;49.894;8.084;2022-08-19T11:53:51;28.10;71.60
16408;DHT22;8313;49.894;8.084;2022-08-19T11:56:17;28.30;70.40
16408;DHT22;8313;49.894;8.084;2022-08-19T11:58:44;28.00;69.10
16408;DHT22;8313;49.894;8.084;2022-08-19T12:01:12;28.00;68.90
16408;DHT22;8313;49.894;8.084;2022-08-19T12:03:40;28.00;67.70
16408;DHT22;8313;49.894;8.084;2022-08-19T12:06:08;28.10;68.20
16408;DHT22;8313;49.894;8.084;2022-08-19T12:08:35;28.10;66.80
16408;DHT22;8313;49.894;8.084;2022-08-19T12:11:00;28.20;66.30
16408;DHT22;8313;49.894;8.084;2022-08-19T12:13:28;28.10;65.60
16408;DHT22;8313;49.894;8.084;2022-08-19T12:15:53;28.20;65.70
16408;DHT22;8313;49.894;8.084;2022-08-19T12:18:19;28.40;66.00
16408;DHT22;8313;49.894;8.084;2022-08-19T12:20:45;28.60;64.70
16408;DHT22;8313;49.894;8.084;2022-08-19T12:23:13;28.60;65.00
16408;DHT22;8313;49.894;8.084;2022-08-19T12:25:44;28.50;64.40
16408;DHT22;8313;49.894;8.084;2022-08-19T12:28:21;28.20;63.60
16408;DHT22;8313;49.894;8.084;2022-08-19T12:30:48;28.50;64.70
16408;DHT22;8313;49.894;8.084;2022-08-19T12:33:17;28.40;62.60
16408;DHT22;8313;49.894;8.084;2022-08-19T12:35:44;28.20;63.20
16408;DHT22;8313;49.894;8.084;2022-08-19T12:38:12;28.40;61.70
16408;DHT22;8313;49.894;8.084;2022-08-19T12:40:38;28.40;62.00
16408;DHT22;8313;49.894;8.084;2022-08-19T12:43:08;28.30;61.30
16408;DHT22;8313;49.894;8.084;2022-08-19T12:45:34;28.30;61.40
16408;DHT22;8313;49.894;8.084;2022-08-19T12:48:00;28.40;61.70
16408;DHT22;8313;49.894;8.084;2022-08-19T12:50:26;28.40;60.70
16408;DHT22;8313;49.894;8.084;2022-08-19T12:52:51;28.10;59.70
16408;DHT22;8313;49.894;8.084;2022-08-19T12:55:18;28.10;60.40
16408;DHT22;8313;49.894;8.084;2022-08-19T12:57:44;28.10;61.20
16408;DHT22;8313;49.894;8.084;2022-08-19T13:00:13;28.40;62.00
16408;DHT22;8313;49.894;8.084;2022-08-19T13:02:41;28.50;61.70
16408;DHT22;8313;49.894;8.084;2022-08-19T13:05:09;28.70;61.40
16408;DHT22;8313;49.894;8.084;2022-08-19T13:07:37;28.70;60.70
16408;DHT22;8313;49.894;8.084;2022-08-19T13:10:06;28.70;60.50
16408;DHT22;8313;49.894;8.084;2022-08-19T13:12:32;28.90;61.60
16408;DHT22;8313;49.894;8.084;2022-08-19T13:14:58;29.10;60.00
16408;DHT22;8313;49.894;8.084;2022-08-19T13:17:23;28.70;59.70
16408;DHT22;8313;49.894;8.084;2022-08-19T13:19:49;28.50;59.90
16408;DHT22;8313;49.894;8.084;2022-08-19T13:22:16;28.30;60.40
16408;DHT22;8313;49.894;8.084;2022-08-19T13:24:42;28.40;60.10
16408;DHT22;8313;49.894;8.084;2022-08-19T13:27:08;28.30;60.20
16408;DHT22;8313;49.894;8.084;2022-08-19T13:29:34;28.50;61.20
16408;DHT22;8313;49.894;8.084;2022-08-19T13:32:18;28.50;60.60
16408;DHT22;8313;49.894;8.084;2022-08-19T13:35:04;28.50;60.60
16408;DHT22;8313;49.894;8.084;2022-08-19T13:37:29;28.50;59.90
16408;DHT22;8313;49.894;8.084;2022-08-19T13:40:10;28.50;59.80
16408;DHT22;8313;49.894;8.084;2022-08-19T13:42:39;28.40;59.40
16408;DHT22;8313;49.894;8.084;2022-08-19T13:45:06;28.60;59.70
16408;DHT22;8313;49.894;8.084;2022-08-19T13:47:33;28.80;60.10
16408;DHT22;8313;49.894;8.084;2022-08-19T13:50:02;28.90;60.00
16408;DHT22;8313;49.894;8.084;2022-08-19T13:52:28;28.90;59.70
16408;DHT22;8313;49.894;8.084;2022-08-19T13:54:54;28.90;59.60
16408;DHT22;8313;49.894;8.084;2022-08-19T13:57:20;28.90;59.70
16408;DHT22;8313;49.894;8.084;2022-08-19T13:59:46;28.80;59.80
16408;DHT22;8313;49.894;8.084;2022-08-19T14:02:12;28.90;59.60
16408;DHT22;8313;49.894;8.084;2022-08-19T14:04:37;28.70;59.60
16408;DHT22;8313;49.894;8.084;2022-08-19T14:07:03;28.80;59.90
16408;DHT22;8313;49.894;8.084;2022-08-19T14:09:30;29.00;60.30
16408;DHT22;8313;49.894;8.084;2022-08-19T14:11:55;29.10;60.00
16408;DHT22;8313;49.894;8.084;2022-08-19T14:14:21;29.10;60.00
16408;DHT22;8313;49.894;8.084;2022-08-19T14:16:47;29.20;60.00
16408;DHT22;8313;49.894;8.084;2022-08-19T14:19:13;29.20;60.80
16408;DHT22;8313;49.894;8.084;2022-08-19T14:21:39;29.20;60.10
16408;DHT22;8313;49.894;8.084;2022-08-19T14:24:07;29.10;60.60
16408;DHT22;8313;49.894;8.084;2022-08-19T14:26:33;29.20;61.00
16408;DHT22;8313;49.894;8.084;2022-08-19T14:28:59;29.30;61.20
16408;DHT22;8313;49.894;8.084;2022-08-19T14:31:26;29.30;60.80
16408;DHT22;8313;49.894;8.084;2022-08-19T14:33:53;29.10;60.20
16408;DHT22;8313;49.894;8.084;2022-08-19T14:36:19;29.20;60.50
16408;DHT22;8313;49.894;8.084;2022-08-19T14:38:47;29.10;60.00
16408;DHT22;8313;49.894;8.084;2022-08-19T14:41:22;29.00;60.00
16408;DHT22;8313;49.894;8.084;2022-08-19T14:43:50;28.90;60.20
16408;DHT22;8313;49.894;8.084;2022-08-19T14:46:21;28.80;60.00
16408;DHT22;8313;49.894;8.084;2022-08-19T14:48:48;28.80;60.50
16408;DHT22;8313;49.894;8.084;2022-08-19T14:51:14;28.80;60.50
16408;DHT22;8313;49.894;8.084;2022-08-19T14:53:41;28.80;60.50
16408;DHT22;8313;49.894;8.084;2022-08-19T14:56:13;28.80;60.60
16408;DHT22;8313;49.894;8.084;2022-08-19T14:58:40;28.80;60.80
16408;DHT22;8313;49.894;8.084;2022-08-19T15:01:07;28.90;61.00
16408;DHT22;8313;49.894;8.084;2022-08-19T15:03:33;29.00;61.10
16408;DHT22;8313;49.894;8.084;2022-08-19T15:06:00;28.90;60.70
16408;DHT22;8313;49.894;8.084;2022-08-19T15:08:28;29.00;60.60
16408;DHT22;8313;49.894;8.084;2022-08-19T15:10:55;28.80;60.60
16408;DHT22;8313;49.894;8.084;2022-08-19T15:13:22;28.70;60.80
16408;DHT22;8313;49.894;8.084;2022-08-19T15:15:49;28.80;61.20
16408;DHT22;8313;49.894;8.084;2022-08-19T15:18:14;28.90;61.20
16408;DHT22;8313;49.894;8.084;2022-08-19T15:20:40;28.90;60.90
16408;DHT22;8313;49.894;8.084;2022-08-19T15:23:06;28.70;61.00
16408;DHT22;8313;49.894;8.084;2022-08-19T15:25:32;28.70;61.20
16408;DHT22;8313;49.894;8.084;2022-08-19T15:27:59;28.80;61.10
16408;DHT22;8313;49.894;8.084;2022-08-19T15:30:27;28.80;61.20
16408;DHT22;8313;49.894;8.084;2022-08-19T15:32:55;28.70;61.40
16408;DHT22;8313;49.894;8.084;2022-08-19T15:35:23;28.80;61.30
16408;DHT22;8313;49.894;8.084;2022-08-19T15:37:50;28.70;61.50
16408;DHT22;8313;49.894;8.084;2022-08-19T15:40:17;28.60;61.60
16408;DHT22;8313;49.894;8.084;2022-08-19T15:42:44;28.60;61.90
16408;DHT22;8313;49.894;8.084;2022-08-19T15:45:12;28.60;62.70
16408;DHT22;8313;49.894;8.084;2022-08-19T15:47:38;28.70;62.20
16408;DHT22;8313;49.894;8.084;2022-08-19T15:50:06;28.60;61.90
16408;DHT22;8313;49.894;8.084;2022-08-19T15:52:32;28.60;62.00
16408;DHT22;8313;49.894;8.084;2022-08-19T15:54:58;28.70;62.00
16408;DHT22;8313;49.894;8.084;2022-08-19T15:57:24;28.60;61.80
16408;DHT22;8313;49.894;8.084;2022-08-19T15:59:50;28.50;61.80